createdAt,value
2018-08-06T00:00:05.662Z,10.15
2018-08-06T00:05:10.768Z,10.50
2018-08-06T00:07:39.024Z,10.65
2018-08-06T00:10:11.225Z,10.13
2018-08-06T00:12:39.577Z,9.80
2018-08-06T00:15:09.003Z,9.88
2018-08-06T00:17:37.465Z,10.35
2018-08-06T00:20:06.317Z,10.68
2018-08-06T00:22:34.381Z,10.35
2018-08-06T00:25:02.379Z,11.00
2018-08-06T00:27:30.996Z,12.90
2018-08-06T00:29:59.034Z,12.00
2018-08-06T00:32:27.154Z,12.05
2018-08-06T00:34:55.178Z,12.10
2018-08-06T00:37:23.378Z,11.20
2018-08-06T00:39:51.619Z,11.38
2018-08-06T00:42:19.936Z,10.53
2018-08-06T00:44:48.107Z,12.05
2018-08-06T00:47:16.336Z,11.75
2018-08-06T00:49:44.096Z,11.18
2018-08-06T00:52:11.864Z,12.90
2018-08-06T00:54:39.651Z,12.45
2018-08-06T00:57:07.606Z,12.10
2018-08-06T00:59:35.353Z,13.93
2018-08-06T01:02:03.371Z,13.10
2018-08-06T01:04:31.348Z,13.90
2018-08-06T01:06:59.401Z,12.07
2018-08-06T01:09:27.136Z,12.63
2018-08-06T01:11:55.133Z,12.68
2018-08-06T01:14:22.935Z,12.00
2018-08-06T01:16:51.108Z,12.47
2018-08-06T01:19:19.256Z,12.40
2018-08-06T01:21:47.364Z,12.35
2018-08-06T01:24:15.426Z,12.03
2018-08-06T01:26:43.798Z,13.98
2018-08-06T01:29:12.101Z,13.20
2018-08-06T01:31:40.369Z,13.58
2018-08-06T01:34:08.455Z,13.15
2018-08-06T01:36:36.756Z,12.00
2018-08-06T01:39:08.046Z,11.80
2018-08-06T01:41:36.563Z,12.03
2018-08-06T01:44:04.943Z,12.10
2018-08-06T01:46:33.017Z,12.80
2018-08-06T01:49:01.163Z,12.63
2018-08-06T01:51:29.465Z,12.18
2018-08-06T01:53:57.768Z,12.43
2018-08-06T01:56:25.792Z,12.60
2018-08-06T01:58:53.967Z,12.55
2018-08-06T02:01:22.337Z,12.60
2018-08-06T02:03:50.647Z,11.60
2018-08-06T02:06:18.770Z,11.97
2018-08-06T02:08:46.864Z,12.13
2018-08-06T02:11:14.958Z,12.43
2018-08-06T02:13:43.117Z,13.58
2018-08-06T02:16:11.322Z,12.23
2018-08-06T02:18:39.500Z,12.80
2018-08-06T02:21:08.062Z,11.60
2018-08-06T02:23:36.284Z,12.60
2018-08-06T02:26:04.612Z,11.43
2018-08-06T02:28:32.832Z,12.10
2018-08-06T02:31:01.089Z,13.35
2018-08-06T02:33:29.443Z,13.45
2018-08-06T02:35:57.680Z,13.70
2018-08-06T02:38:25.743Z,13.55
2018-08-06T02:40:53.842Z,13.43
2018-08-06T02:43:21.608Z,13.25
2018-08-06T02:46:04.541Z,13.05
2018-08-06T02:48:32.350Z,13.50
2018-08-06T02:51:00.281Z,13.15
2018-08-06T02:53:30.630Z,13.00
2018-08-06T02:56:13.733Z,13.15
2018-08-06T02:58:41.761Z,12.90
2018-08-06T03:01:10.124Z,12.78
2018-08-06T03:03:38.598Z,13.20
2018-08-06T03:06:07.014Z,12.70
2018-08-06T03:08:35.562Z,12.50
2018-08-06T03:11:03.854Z,12.60
2018-08-06T03:13:32.161Z,12.55
2018-08-06T03:16:00.377Z,12.80
2018-08-06T03:18:28.877Z,13.10
2018-08-06T03:20:57.230Z,13.53
2018-08-06T03:23:25.556Z,13.18
2018-08-06T03:25:53.602Z,12.30
2018-08-06T03:28:21.914Z,12.80
2018-08-06T03:30:49.909Z,11.70
2018-08-06T03:33:18.199Z,13.60
2018-08-06T03:35:45.990Z,13.45
2018-08-06T03:38:14.277Z,12.18
2018-08-06T03:40:42.505Z,11.83
2018-08-06T03:43:10.812Z,12.80
2018-08-06T03:45:39.233Z,13.05
2018-08-06T03:48:07.510Z,12.40
2018-08-06T03:50:35.783Z,14.55
2018-08-06T03:53:04.262Z,15.15
2018-08-06T03:55:32.191Z,14.18
2018-08-06T03:58:00.313Z,14.87
2018-08-06T04:00:28.457Z,13.70
2018-08-06T04:02:56.548Z,13.87
2018-08-06T04:05:24.483Z,13.40
2018-08-06T04:07:52.581Z,14.50
2018-08-06T04:10:20.539Z,14.27
2018-08-06T04:12:48.556Z,13.75
2018-08-06T04:15:16.641Z,14.13
2018-08-06T04:17:44.657Z,13.98
2018-08-06T04:20:13.164Z,14.63
2018-08-06T04:22:42.008Z,14.15
2018-08-06T04:25:10.121Z,13.60
2018-08-06T04:27:38.403Z,13.70
2018-08-06T04:30:10.100Z,14.80
2018-08-06T04:32:38.004Z,12.90
2018-08-06T04:35:06.097Z,13.38
2018-08-06T04:37:34.124Z,13.28
2018-08-06T04:40:02.143Z,14.15
2018-08-06T04:42:30.117Z,13.50
2018-08-06T04:44:58.101Z,14.90
2018-08-06T04:47:26.022Z,13.60
2018-08-06T04:49:54.019Z,14.30
2018-08-06T04:52:22.125Z,15.20
2018-08-06T04:54:50.077Z,14.35
2018-08-06T04:57:18.044Z,13.90
2018-08-06T04:59:46.147Z,13.00
2018-08-06T05:02:14.092Z,14.60
2018-08-06T05:04:42.036Z,13.58
2018-08-06T05:07:10.025Z,13.83
2018-08-06T05:09:38.700Z,13.65
2018-08-06T05:12:07.133Z,14.83
2018-08-06T05:14:35.840Z,14.70
2018-08-06T05:17:04.333Z,13.60
2018-08-06T05:19:32.172Z,13.93
2018-08-06T05:22:00.185Z,13.95
2018-08-06T05:24:27.995Z,13.18
2018-08-06T05:26:55.957Z,13.95
2018-08-06T05:29:23.933Z,13.90
2018-08-06T05:31:51.949Z,13.38
2018-08-06T05:34:19.953Z,13.13
2018-08-06T05:36:48.017Z,13.60
2018-08-06T05:39:16.070Z,14.13
2018-08-06T05:41:43.844Z,13.30
2018-08-06T05:44:11.596Z,12.60
2018-08-06T05:46:39.590Z,12.75
2018-08-06T05:49:07.598Z,11.97
2018-08-06T05:51:35.612Z,12.80
2018-08-06T05:54:03.760Z,13.25
2018-08-06T05:56:31.765Z,12.23
2018-08-06T05:58:59.548Z,12.65
2018-08-06T06:01:27.612Z,12.82
2018-08-06T06:03:55.343Z,13.28
2018-08-06T06:06:23.403Z,13.88
2018-08-06T06:08:51.373Z,13.30
2018-08-06T06:11:19.372Z,14.07
2018-08-06T06:13:47.414Z,13.45
2018-08-06T06:16:15.497Z,14.20
2018-08-06T06:18:43.529Z,13.88
2018-08-06T06:21:11.525Z,14.63
2018-08-06T06:23:39.497Z,13.80
2018-08-06T06:26:07.540Z,14.28
2018-08-06T06:28:35.579Z,14.80
2018-08-06T06:31:03.586Z,14.60
2018-08-06T06:33:31.568Z,14.50
2018-08-06T06:35:59.637Z,14.90
2018-08-06T06:38:27.641Z,13.70
2018-08-06T06:40:55.613Z,15.00
2018-08-06T06:43:23.701Z,14.23
2018-08-06T06:45:51.552Z,15.10
2018-08-06T06:48:19.572Z,16.02
2018-08-06T06:50:47.545Z,14.95
2018-08-06T06:53:15.361Z,14.50
2018-08-06T06:55:43.401Z,14.50
2018-08-06T06:58:11.338Z,16.25
2018-08-06T07:00:39.304Z,15.08
2018-08-06T07:03:07.362Z,15.85
2018-08-06T07:05:35.344Z,16.40
2018-08-06T07:08:03.468Z,16.15
2018-08-06T07:10:31.404Z,16.07
2018-08-06T07:12:59.192Z,16.30
2018-08-06T07:15:27.247Z,16.85
2018-08-06T07:17:55.060Z,16.83
2018-08-06T07:20:23.060Z,15.72
2018-08-06T07:22:51.173Z,16.70
2018-08-06T07:25:19.160Z,17.00
2018-08-06T07:27:47.211Z,16.55
2018-08-06T07:30:15.555Z,17.10
2018-08-06T07:32:44.168Z,16.05
2018-08-06T07:35:12.949Z,16.52
2018-08-06T07:37:41.285Z,15.57
2018-08-06T07:40:11.469Z,15.83
2018-08-06T07:42:39.837Z,17.32
2018-08-06T07:45:14.386Z,15.98
2018-08-06T07:47:42.393Z,15.60
2018-08-06T07:50:12.761Z,15.20
2018-08-06T07:52:40.618Z,20.52
2018-08-06T07:55:08.691Z,16.90
2018-08-06T07:57:36.604Z,18.17
2018-08-06T08:00:08.417Z,15.70
2018-08-06T08:02:36.430Z,18.07
2018-08-06T08:05:06.309Z,17.40
2018-08-06T08:07:35.058Z,17.77
2018-08-06T08:10:04.156Z,17.30
2018-08-06T08:12:32.105Z,16.00
2018-08-06T08:15:00.130Z,16.90
2018-08-06T08:17:28.156Z,18.40
2018-08-06T08:19:56.210Z,18.37
2018-08-06T08:22:24.166Z,15.20
2018-08-06T08:24:51.966Z,17.30
2018-08-06T08:27:19.953Z,17.30
2018-08-06T08:29:47.933Z,16.35
2018-08-06T08:32:15.904Z,17.45
2018-08-06T08:34:44.001Z,17.87
2018-08-06T08:37:11.964Z,18.37
2018-08-06T08:39:39.979Z,18.60
2018-08-06T08:42:07.954Z,19.10
2018-08-06T08:44:35.964Z,17.55
2018-08-06T08:47:04.040Z,18.90
2018-08-06T08:49:32.032Z,17.07
2018-08-06T08:52:00.039Z,18.70
2018-08-06T08:54:28.020Z,17.63
2018-08-06T08:56:56.189Z,16.20
2018-08-06T08:59:24.277Z,17.73
2018-08-06T09:01:52.360Z,18.03
2018-08-06T09:04:20.393Z,18.07
2018-08-06T09:06:48.416Z,18.20
2018-08-06T09:09:16.370Z,16.95
2018-08-06T09:11:44.410Z,17.23
2018-08-06T09:14:12.418Z,18.05
2018-08-06T09:16:40.469Z,17.90
2018-08-06T09:19:08.431Z,18.70
2018-08-06T09:21:36.384Z,17.80
2018-08-06T09:24:04.247Z,16.47
2018-08-06T09:26:32.260Z,18.48
2018-08-06T09:29:00.264Z,16.87
2018-08-06T09:31:28.247Z,16.30
2018-08-06T09:33:56.323Z,17.35
2018-08-06T09:36:24.365Z,17.98
2018-08-06T09:38:52.380Z,17.35
2018-08-06T09:41:20.392Z,17.57
2018-08-06T09:43:48.426Z,16.42
2018-08-06T09:46:16.221Z,17.17
2018-08-06T09:48:44.318Z,16.00
2018-08-06T09:51:12.283Z,17.35
2018-08-06T09:53:40.358Z,16.40
2018-08-06T09:56:08.351Z,15.68
2018-08-06T09:58:36.393Z,16.62
2018-08-06T10:01:09.979Z,15.70
2018-08-06T10:03:37.964Z,15.00
2018-08-06T10:06:06.084Z,14.98
2018-08-06T10:08:34.012Z,13.30
2018-08-06T10:11:01.995Z,14.45
2018-08-06T10:13:30.009Z,13.22
2018-08-06T10:15:58.049Z,14.07
2018-08-06T10:18:26.092Z,13.73
2018-08-06T10:20:54.067Z,11.95
2018-08-06T10:23:22.048Z,10.80
2018-08-06T10:25:50.022Z,10.30
2018-08-06T10:28:17.956Z,12.35
2018-08-06T10:30:45.724Z,10.50
2018-08-06T10:33:13.708Z,10.40
2018-08-06T10:35:41.730Z,11.15
2018-08-06T10:38:09.673Z,8.65
2018-08-06T10:40:37.670Z,9.00
2018-08-06T10:43:05.661Z,9.60
2018-08-06T10:45:33.688Z,9.50
2018-08-06T10:48:01.710Z,9.68
2018-08-06T10:50:29.456Z,8.38
2018-08-06T10:52:57.519Z,10.40
2018-08-06T10:55:25.573Z,9.40
2018-08-06T10:57:53.585Z,8.80
2018-08-06T11:00:22.799Z,8.70
2018-08-06T11:02:50.995Z,9.95
2018-08-06T11:05:19.672Z,9.83
2018-08-06T11:07:47.719Z,9.03
2018-08-06T11:10:19.007Z,9.00
2018-08-06T11:12:47.023Z,8.80
2018-08-06T11:15:20.122Z,8.80
2018-08-06T11:17:48.459Z,8.50
2018-08-06T11:20:17.216Z,8.85
2018-08-06T11:22:45.068Z,9.50
2018-08-06T11:25:23.008Z,10.32
2018-08-06T11:27:51.152Z,9.48
2018-08-06T11:30:20.460Z,8.65
2018-08-06T11:32:48.805Z,8.60
2018-08-06T11:35:17.074Z,9.15
2018-08-06T11:37:45.237Z,8.88
2018-08-06T11:40:14.510Z,9.75
2018-08-06T11:42:48.820Z,9.20
2018-08-06T11:45:17.997Z,9.33
2018-08-06T11:47:46.036Z,8.53
2018-08-06T11:50:14.190Z,8.30
2018-08-06T11:52:42.996Z,8.75
2018-08-06T11:55:11.177Z,8.83
2018-08-06T11:57:40.851Z,8.40
2018-08-06T12:00:16.271Z,8.58
2018-08-06T12:02:44.307Z,8.63
2018-08-06T12:05:12.692Z,8.80
2018-08-06T12:07:41.192Z,8.60
2018-08-06T12:10:20.070Z,8.60
2018-08-06T12:12:56.522Z,8.43
2018-08-06T12:15:31.779Z,8.40
2018-08-06T12:18:00.936Z,7.97
2018-08-06T12:20:32.799Z,8.10
2018-08-06T12:23:17.445Z,7.67
2018-08-06T12:25:46.425Z,8.13
2018-08-06T12:28:16.564Z,8.50
2018-08-06T12:30:44.617Z,7.90
2018-08-06T12:33:12.576Z,7.10
2018-08-06T12:35:40.544Z,7.95
2018-08-06T12:38:08.542Z,7.70
2018-08-06T12:40:36.502Z,7.77
2018-08-06T12:43:04.911Z,9.00
2018-08-06T12:45:32.910Z,8.33
2018-08-06T12:48:00.719Z,7.33
2018-08-06T12:50:28.690Z,8.23
2018-08-06T12:52:56.677Z,7.60
2018-08-06T12:55:24.668Z,7.83
2018-08-06T12:57:52.645Z,7.80
2018-08-06T13:00:26.539Z,7.17
2018-08-06T13:02:54.943Z,7.57
2018-08-06T13:05:23.632Z,8.13
2018-08-06T13:07:51.944Z,7.65
2018-08-06T13:10:19.940Z,7.37
2018-08-06T13:12:47.933Z,7.20
2018-08-06T13:15:16.543Z,7.63
2018-08-06T13:17:44.336Z,7.20
2018-08-06T13:20:12.365Z,7.73
2018-08-06T13:22:40.321Z,7.60
2018-08-06T13:25:10.072Z,7.58
2018-08-06T13:27:38.144Z,7.20
2018-08-06T13:30:09.568Z,7.45
2018-08-06T13:32:37.630Z,7.20
2018-08-06T13:35:05.697Z,8.23
2018-08-06T13:37:33.816Z,7.60
2018-08-06T13:40:01.817Z,7.47
2018-08-06T13:42:30.064Z,7.00
2018-08-06T13:44:57.819Z,7.10
2018-08-06T13:47:25.833Z,7.75
2018-08-06T13:49:53.808Z,7.50
2018-08-06T13:52:21.792Z,7.10
2018-08-06T13:54:50.098Z,6.37
2018-08-06T13:57:18.120Z,7.53
2018-08-06T13:59:46.157Z,6.95
2018-08-06T14:02:14.236Z,6.22
2018-08-06T14:04:41.987Z,6.37
2018-08-06T14:07:10.168Z,7.00
2018-08-06T14:09:38.105Z,6.53
2018-08-06T14:12:06.494Z,6.70
2018-08-06T14:14:34.464Z,6.45
2018-08-06T14:17:02.460Z,6.90
2018-08-06T14:19:30.793Z,6.50
2018-08-06T14:21:58.943Z,7.20
2018-08-06T14:24:26.888Z,7.30
2018-08-06T14:26:55.978Z,6.87
2018-08-06T14:29:25.017Z,6.80
2018-08-06T14:31:53.384Z,6.80
2018-08-06T14:34:21.678Z,10.68
2018-08-06T14:36:49.882Z,7.33
2018-08-06T14:39:17.888Z,6.78
2018-08-06T14:41:45.870Z,6.50
2018-08-06T14:44:13.697Z,6.50
2018-08-06T14:46:41.655Z,6.53
2018-08-06T14:49:09.604Z,6.30
2018-08-06T14:51:37.629Z,6.90
2018-08-06T14:54:05.592Z,6.85
2018-08-06T14:56:33.621Z,6.50
2018-08-06T14:59:01.610Z,6.20
2018-08-06T15:01:29.613Z,6.47
2018-08-06T15:03:57.624Z,6.92
2018-08-06T15:06:25.578Z,7.67
2018-08-06T15:08:53.454Z,6.62
2018-08-06T15:11:21.631Z,6.22
2018-08-06T15:13:49.361Z,6.72
2018-08-06T15:16:17.336Z,6.23
2018-08-06T15:18:45.308Z,6.10
2018-08-06T15:21:13.311Z,6.40
2018-08-06T15:23:41.316Z,7.20
2018-08-06T15:26:09.292Z,6.70
2018-08-06T15:28:37.231Z,6.80
2018-08-06T15:31:05.597Z,6.90
2018-08-06T15:33:33.366Z,7.28
2018-08-06T15:36:01.157Z,5.97
2018-08-06T15:38:29.120Z,6.62
2018-08-06T15:40:57.590Z,6.53
2018-08-06T15:43:25.603Z,6.50
2018-08-06T15:45:53.615Z,6.87
2018-08-06T15:48:21.462Z,6.00
2018-08-06T15:50:49.441Z,6.00
2018-08-06T15:53:17.423Z,6.00
2018-08-06T15:55:45.207Z,6.47
2018-08-06T15:58:13.096Z,5.87
2018-08-06T16:00:41.157Z,5.75
2018-08-06T16:03:09.145Z,6.40
2018-08-06T16:05:37.177Z,5.70
2018-08-06T16:08:05.114Z,5.87
2018-08-06T16:10:33.125Z,5.50
2018-08-06T16:13:00.913Z,5.70
2018-08-06T16:15:28.936Z,5.80
2018-08-06T16:17:56.916Z,6.40
2018-08-06T16:20:24.880Z,5.78
2018-08-06T16:22:52.920Z,5.70
2018-08-06T16:25:20.922Z,5.30
2018-08-06T16:27:49.085Z,5.78
2018-08-06T16:30:19.038Z,6.60
2018-08-06T16:32:47.522Z,6.42
2018-08-06T16:35:17.047Z,6.00
2018-08-06T16:37:45.444Z,5.90
2018-08-06T16:40:13.880Z,5.85
2018-08-06T16:42:42.298Z,5.90
2018-08-06T16:45:10.418Z,5.63
2018-08-06T16:47:38.925Z,5.60
2018-08-06T16:50:09.046Z,5.58
2018-08-06T16:52:37.214Z,5.80
2018-08-06T16:55:05.973Z,5.90
2018-08-06T16:57:33.947Z,5.87
2018-08-06T17:00:01.916Z,5.30
2018-08-06T17:02:29.937Z,5.70
2018-08-06T17:04:57.742Z,5.60
2018-08-06T17:07:25.762Z,5.30
2018-08-06T17:09:53.537Z,6.00
2018-08-06T17:12:21.502Z,5.80
2018-08-06T17:14:49.484Z,5.90
2018-08-06T17:17:18.642Z,5.80
2018-08-06T17:19:52.750Z,6.22
2018-08-06T17:22:25.623Z,6.70
2018-08-06T17:24:59.211Z,6.00
2018-08-06T17:27:32.836Z,6.08
2018-08-06T17:30:05.124Z,6.60
2018-08-06T17:32:41.964Z,5.70
2018-08-06T17:35:12.808Z,5.62
2018-08-06T17:37:46.952Z,5.65
2018-08-06T17:40:20.638Z,5.93
2018-08-06T17:42:51.832Z,6.62
2018-08-06T17:45:25.004Z,6.53
2018-08-06T17:47:57.060Z,6.15
2018-08-06T17:50:29.516Z,6.17
2018-08-06T17:53:02.511Z,6.87
2018-08-06T17:55:37.393Z,6.20
2018-08-06T17:58:11.812Z,6.97
2018-08-06T18:00:42.872Z,6.15
2018-08-06T18:03:14.469Z,6.57
2018-08-06T18:05:46.468Z,6.30
2018-08-06T18:08:17.896Z,6.40
2018-08-06T18:10:50.871Z,7.53
2018-08-06T18:13:23.498Z,7.25
2018-08-06T18:15:55.285Z,6.75
2018-08-06T18:18:24.396Z,7.10
2018-08-06T18:20:55.019Z,7.90
2018-08-06T18:23:24.498Z,8.50
2018-08-06T18:25:52.476Z,7.40
2018-08-06T18:28:20.275Z,11.30
2018-08-06T18:30:48.456Z,7.75
2018-08-06T18:33:17.945Z,7.92
2018-08-06T18:35:46.264Z,7.70
2018-08-06T18:38:14.977Z,7.50
2018-08-06T18:40:42.965Z,8.18
2018-08-06T18:43:11.011Z,7.10
2018-08-06T18:45:39.259Z,6.92
2018-08-06T18:48:07.614Z,6.80
2018-08-06T18:50:35.632Z,8.03
2018-08-06T18:53:04.056Z,8.00
2018-08-06T18:55:32.127Z,8.25
2018-08-06T18:58:00.150Z,8.23
2018-08-06T19:00:31.589Z,7.27
2018-08-06T19:02:59.648Z,7.70
2018-08-06T19:05:27.969Z,7.33
2018-08-06T19:07:56.224Z,7.30
2018-08-06T19:10:24.596Z,7.40
2018-08-06T19:12:58.205Z,7.30
2018-08-06T19:15:26.531Z,7.87
2018-08-06T19:18:02.923Z,9.88
2018-08-06T19:20:31.229Z,6.70
2018-08-06T19:22:59.366Z,8.20
2018-08-06T19:25:29.072Z,7.70
2018-08-06T19:27:57.532Z,7.78
2018-08-06T19:30:31.983Z,8.50
2018-08-06T19:33:00.828Z,8.20
2018-08-06T19:35:29.274Z,8.20
2018-08-06T19:37:57.568Z,9.25
2018-08-06T19:40:25.978Z,8.60
2018-08-06T19:42:59.452Z,8.33
2018-08-06T19:45:27.750Z,7.87
2018-08-06T19:47:55.841Z,11.33
2018-08-06T19:50:29.588Z,7.78
2018-08-06T19:52:57.891Z,8.00
2018-08-06T19:55:32.648Z,8.00
2018-08-06T19:58:00.697Z,8.58
2018-08-06T20:00:28.764Z,8.30
2018-08-06T20:02:57.104Z,8.03
2018-08-06T20:05:25.002Z,7.72
2018-08-06T20:07:54.621Z,7.85
2018-08-06T20:10:22.808Z,7.12
2018-08-06T20:12:51.367Z,7.97
2018-08-06T20:15:19.982Z,7.10
2018-08-06T20:17:48.802Z,8.15
2018-08-06T20:20:17.164Z,9.90
2018-08-06T20:22:45.681Z,7.90
2018-08-06T20:25:15.654Z,7.83
2018-08-06T20:27:44.542Z,8.93
2018-08-06T20:30:13.809Z,9.33
2018-08-06T20:32:42.021Z,9.75
2018-08-06T20:35:12.491Z,9.30
2018-08-06T20:37:40.925Z,8.30
2018-08-06T20:40:09.811Z,8.90
2018-08-06T20:42:39.112Z,8.88
2018-08-06T20:45:12.097Z,9.53
2018-08-06T20:47:41.097Z,9.65
2018-08-06T20:50:11.571Z,9.60
2018-08-06T20:52:39.804Z,10.40
2018-08-06T20:55:08.941Z,9.80
2018-08-06T20:57:37.317Z,10.10
2018-08-06T21:00:06.346Z,11.12
2018-08-06T21:02:34.508Z,10.68
2018-08-06T21:05:02.752Z,11.03
2018-08-06T21:07:31.719Z,10.60
2018-08-06T21:09:59.804Z,11.13
2018-08-06T21:12:28.048Z,10.48
2018-08-06T21:14:56.275Z,12.82
2018-08-06T21:17:24.761Z,10.30
2018-08-06T21:19:53.118Z,10.80
2018-08-06T21:22:21.390Z,11.07
2018-08-06T21:24:49.788Z,12.25
2018-08-06T21:27:17.921Z,14.50
2018-08-06T21:29:46.129Z,11.03
2018-08-06T21:32:14.264Z,12.40
2018-08-06T21:34:42.059Z,10.82
2018-08-06T21:37:10.417Z,10.03
2018-08-06T21:39:38.641Z,10.85
2018-08-06T21:42:07.176Z,10.40
2018-08-06T21:44:35.029Z,12.15
2018-08-06T21:47:03.125Z,11.38
2018-08-06T21:49:31.148Z,13.28
2018-08-06T21:51:59.232Z,13.20
2018-08-06T21:54:27.573Z,13.75
2018-08-06T21:56:55.664Z,11.33
2018-08-06T21:59:23.904Z,11.15
2018-08-06T22:01:52.206Z,11.60
2018-08-06T22:04:20.564Z,13.68
2018-08-06T22:06:48.831Z,10.98
2018-08-06T22:09:16.934Z,11.33
2018-08-06T22:11:45.199Z,11.30
2018-08-06T22:14:13.485Z,12.80
2018-08-06T22:16:41.753Z,12.00
2018-08-06T22:19:10.810Z,13.68
2018-08-06T22:21:38.929Z,11.75
2018-08-06T22:24:07.833Z,11.47
2018-08-06T22:26:36.305Z,12.70
2018-08-06T22:29:04.884Z,11.10
2018-08-06T22:31:33.173Z,10.35
2018-08-06T22:34:01.405Z,10.43
2018-08-06T22:36:29.498Z,9.70
2018-08-06T22:38:57.507Z,9.70
2018-08-06T22:41:25.704Z,9.00
2018-08-06T22:43:54.148Z,9.30
2018-08-06T22:46:22.683Z,9.90
2018-08-06T22:48:50.801Z,8.73
2018-08-06T22:51:19.096Z,8.50
2018-08-06T22:53:47.348Z,8.90
2018-08-06T22:56:15.568Z,9.65
2018-08-06T22:58:43.591Z,10.83
2018-08-06T23:01:11.804Z,10.32
2018-08-06T23:03:39.876Z,10.10
2018-08-06T23:06:09.080Z,10.13
2018-08-06T23:08:37.464Z,10.10
2018-08-06T23:11:06.036Z,9.95
2018-08-06T23:13:34.221Z,9.70
2018-08-06T23:16:02.568Z,10.20
2018-08-06T23:18:30.788Z,9.67
2018-08-06T23:20:59.076Z,9.80
2018-08-06T23:23:27.216Z,10.13
2018-08-06T23:25:55.484Z,9.40
2018-08-06T23:28:23.705Z,10.35
2018-08-06T23:30:51.926Z,11.05
2018-08-06T23:33:20.244Z,10.80
2018-08-06T23:35:48.387Z,11.00
2018-08-06T23:38:16.589Z,10.60
2018-08-06T23:40:44.852Z,11.70
2018-08-06T23:43:13.016Z,10.80
2018-08-06T23:45:41.324Z,11.00
2018-08-06T23:48:09.466Z,11.20
2018-08-06T23:50:37.759Z,10.80
2018-08-06T23:53:06.027Z,12.05
2018-08-06T23:55:34.220Z,11.33
2018-08-06T23:58:02.289Z,11.55
